sensor_id;sensor_type;location;lat;lon;timestamp;temperature;humidity
38020;DHT22;23829;51.350;17.286;2023-05-27T00:02:12;24.20;35.40
38020;DHT22;23829;51.350;17.286;2023-05-27T00:04:39;24.20;35.10
38020;DHT22;23829;51.350;17.286;2023-05-27T00:07:05;24.30;34.90
38020;DHT22;23829;51.350;17.286;2023-05-27T00:09:32;24.20;35.00
38020;DHT22;23829;51.350;17.286;2023-05-27T00:11:58;24.10;35.40
38020;DHT22;23829;51.350;17.286;2023-05-27T00:14:26;23.80;35.80
38020;DHT22;23829;51.350;17.286;2023-05-27T00:16:52;24.10;35.40
38020;DHT22;23829;51.350;17.286;2023-05-27T00:19:18;24.00;35.30
38020;DHT22;23829;51.350;17.286;2023-05-27T00:21:44;24.10;35.30
38020;DHT22;23829;51.350;17.286;2023-05-27T00:24:11;24.00;35.40
38020;DHT22;23829;51.350;17.286;2023-05-27T00:26:37;24.00;35.40
38020;DHT22;23829;51.350;17.286;2023-05-27T00:29:05;23.80;35.40
38020;DHT22;23829;51.350;17.286;2023-05-27T00:31:31;23.80;35.40
38020;DHT22;23829;51.350;17.286;2023-05-27T00:33:58;23.90;35.20
38020;DHT22;23829;51.350;17.286;2023-05-27T00:36:24;23.60;35.70
38020;DHT22;23829;51.350;17.286;2023-05-27T00:38:51;23.80;35.30
38020;DHT22;23829;51.350;17.286;2023-05-27T00:41:17;23.90;34.90
38020;DHT22;23829;51.350;17.286;2023-05-27T00:43:44;23.90;35.10
38020;DHT22;23829;51.350;17.286;2023-05-27T00:46:10;23.50;35.60
38020;DHT22;23829;51.350;17.286;2023-05-27T00:48:37;23.50;35.90
38020;DHT22;23829;51.350;17.286;2023-05-27T00:51:04;23.70;35.20
38020;DHT22;23829;51.350;17.286;2023-05-27T00:53:41;23.80;35.00
38020;DHT22;23829;51.350;17.286;2023-05-27T00:56:09;23.70;35.20
38020;DHT22;23829;51.350;17.286;2023-05-27T00:58:36;23.70;35.20
38020;DHT22;23829;51.350;17.286;2023-05-27T01:01:03;23.80;34.80
38020;DHT22;23829;51.350;17.286;2023-05-27T01:03:31;23.80;34.80
38020;DHT22;23829;51.350;17.286;2023-05-27T01:06:22;23.70;34.70
38020;DHT22;23829;51.350;17.286;2023-05-27T01:09:07;23.70;34.70
38020;DHT22;23829;51.350;17.286;2023-05-27T01:11:42;23.80;34.50
38020;DHT22;23829;51.350;17.286;2023-05-27T01:14:11;23.60;34.60
38020;DHT22;23829;51.350;17.286;2023-05-27T01:16:41;23.50;34.70
38020;DHT22;23829;51.350;17.286;2023-05-27T01:19:14;23.60;34.60
38020;DHT22;23829;51.350;17.286;2023-05-27T01:21:43;23.50;34.60
38020;DHT22;23829;51.350;17.286;2023-05-27T01:24:13;23.60;34.60
38020;DHT22;23829;51.350;17.286;2023-05-27T01:26:39;23.30;34.80
38020;DHT22;23829;51.350;17.286;2023-05-27T01:29:06;23.30;35.00
38020;DHT22;23829;51.350;17.286;2023-05-27T01:31:47;23.40;34.70
38020;DHT22;23829;51.350;17.286;2023-05-27T01:34:20;23.40;34.60
38020;DHT22;23829;51.350;17.286;2023-05-27T01:36:51;23.40;34.40
38020;DHT22;23829;51.350;17.286;2023-05-27T01:39:23;23.40;34.30
38020;DHT22;23829;51.350;17.286;2023-05-27T01:41:50;23.30;34.40
38020;DHT22;23829;51.350;17.286;2023-05-27T01:44:18;23.40;34.60
38020;DHT22;23829;51.350;17.286;2023-05-27T01:46:46;23.30;34.30
38020;DHT22;23829;51.350;17.286;2023-05-27T01:49:13;23.30;34.40
38020;DHT22;23829;51.350;17.286;2023-05-27T01:51:39;23.10;34.80
38020;DHT22;23829;51.350;17.286;2023-05-27T01:54:06;22.90;35.10
38020;DHT22;23829;51.350;17.286;2023-05-27T01:56:33;23.00;35.20
38020;DHT22;23829;51.350;17.286;2023-05-27T01:59:00;22.90;35.20
38020;DHT22;23829;51.350;17.286;2023-05-27T02:01:26;23.00;34.90
38020;DHT22;23829;51.350;17.286;2023-05-27T02:03:54;23.10;34.80
38020;DHT22;23829;51.350;17.286;2023-05-27T02:06:21;23.10;34.50
38020;DHT22;23829;51.350;17.286;2023-05-27T02:08:48;23.10;34.50
38020;DHT22;23829;51.350;17.286;2023-05-27T02:11:14;23.00;35.30
38020;DHT22;23829;51.350;17.286;2023-05-27T02:13:41;23.00;34.70
38020;DHT22;23829;51.350;17.286;2023-05-27T02:16:08;23.00;34.60
38020;DHT22;23829;51.350;17.286;2023-05-27T02:18:35;22.90;35.10
38020;DHT22;23829;51.350;17.286;2023-05-27T02:21:01;22.60;35.20
38020;DHT22;23829;51.350;17.286;2023-05-27T02:23:33;22.70;35.40
38020;DHT22;23829;51.350;17.286;2023-05-27T02:25:59;22.90;34.90
38020;DHT22;23829;51.350;17.286;2023-05-27T02:28:28;22.90;34.70
38020;DHT22;23829;51.350;17.286;2023-05-27T02:30:56;22.70;34.80
38020;DHT22;23829;51.350;17.286;2023-05-27T02:33:22;22.80;34.90
38020;DHT22;23829;51.350;17.286;2023-05-27T02:35:49;23.00;34.40
38020;DHT22;23829;51.350;17.286;2023-05-27T02:38:15;23.00;34.10
38020;DHT22;23829;51.350;17.286;2023-05-27T02:40:42;22.70;34.70
38020;DHT22;23829;51.350;17.286;2023-05-27T02:43:08;22.60;34.80
38020;DHT22;23829;51.350;17.286;2023-05-27T02:45:34;22.60;35.00
38020;DHT22;23829;51.350;17.286;2023-05-27T02:48:02;22.60;35.00
38020;DHT22;23829;51.350;17.286;2023-05-27T02:50:28;22.50;35.30
38020;DHT22;23829;51.350;17.286;2023-05-27T02:52:56;22.60;35.00
38020;DHT22;23829;51.350;17.286;2023-05-27T02:55:22;22.40;35.20
38020;DHT22;23829;51.350;17.286;2023-05-27T02:57:49;22.30;35.50
38020;DHT22;23829;51.350;17.286;2023-05-27T03:00:16;22.30;35.50
38020;DHT22;23829;51.350;17.286;2023-05-27T03:02:44;22.30;35.30
38020;DHT22;23829;51.350;17.286;2023-05-27T03:05:10;22.50;35.00
38020;DHT22;23829;51.350;17.286;2023-05-27T03:07:37;22.30;35.50
38020;DHT22;23829;51.350;17.286;2023-05-27T03:10:03;22.30;35.50
38020;DHT22;23829;51.350;17.286;2023-05-27T03:12:31;22.10;36.50
38020;DHT22;23829;51.350;17.286;2023-05-27T03:14:57;22.10;36.10
38020;DHT22;23829;51.350;17.286;2023-05-27T03:17:23;22.20;35.90
38020;DHT22;23829;51.350;17.286;2023-05-27T03:19:50;22.20;35.90
38020;DHT22;23829;51.350;17.286;2023-05-27T03:22:17;22.40;35.50
38020;DHT22;23829;51.350;17.286;2023-05-27T03:24:43;22.30;35.90
38020;DHT22;23829;51.350;17.286;2023-05-27T03:27:11;22.30;35.80
38020;DHT22;23829;51.350;17.286;2023-05-27T03:29:41;22.50;35.70
38020;DHT22;23829;51.350;17.286;2023-05-27T03:32:08;22.80;35.20
38020;DHT22;23829;51.350;17.286;2023-05-27T03:34:36;22.50;35.70
38020;DHT22;23829;51.350;17.286;2023-05-27T03:37:03;22.60;35.60
38020;DHT22;23829;51.350;17.286;2023-05-27T03:39:46;22.50;35.70
38020;DHT22;23829;51.350;17.286;2023-05-27T03:42:13;22.50;36.20
38020;DHT22;23829;51.350;17.286;2023-05-27T03:44:39;22.60;36.10
38020;DHT22;23829;51.350;17.286;2023-05-27T03:47:06;22.80;35.70
38020;DHT22;23829;51.350;17.286;2023-05-27T03:49:33;22.90;35.60
38020;DHT22;23829;51.350;17.286;2023-05-27T03:52:00;22.90;35.60
38020;DHT22;23829;51.350;17.286;2023-05-27T03:54:29;23.00;35.60
38020;DHT22;23829;51.350;17.286;2023-05-27T03:56:56;23.00;35.80
38020;DHT22;23829;51.350;17.286;2023-05-27T03:59:22;23.40;35.40
38020;DHT22;23829;51.350;17.286;2023-05-27T04:01:49;23.30;35.60
38020;DHT22;23829;51.350;17.286;2023-05-27T04:04:15;23.20;35.60
38020;DHT22;23829;51.350;17.286;2023-05-27T04:06:42;23.10;35.80
38020;DHT22;23829;51.350;17.286;2023-05-27T04:09:09;23.20;36.30
38020;DHT22;23829;51.350;17.286;2023-05-27T04:11:35;23.40;36.30
38020;DHT22;23829;51.350;17.286;2023-05-27T04:14:01;23.50;36.30
38020;DHT22;23829;51.350;17.286;2023-05-27T04:16:28;23.50;36.30
38020;DHT22;23829;51.350;17.286;2023-05-27T04:18:57;23.30;36.50
38020;DHT22;23829;51.350;17.286;2023-05-27T04:21:26;23.40;37.60
38020;DHT22;23829;51.350;17.286;2023-05-27T04:23:54;23.70;36.90
38020;DHT22;23829;51.350;17.286;2023-05-27T04:26:21;23.80;36.90
38020;DHT22;23829;51.350;17.286;2023-05-27T04:28:52;23.90;37.20
38020;DHT22;23829;51.350;17.286;2023-05-27T04:31:21;24.10;36.90
38020;DHT22;23829;51.350;17.286;2023-05-27T04:33:55;24.00;37.30
38020;DHT22;23829;51.350;17.286;2023-05-27T04:36:22;24.30;37.20
38020;DHT22;23829;51.350;17.286;2023-05-27T04:39:02;24.20;37.50
38020;DHT22;23829;51.350;17.286;2023-05-27T04:41:32;24.20;38.10
38020;DHT22;23829;51.350;17.286;2023-05-27T04:44:08;24.20;38.10
38020;DHT22;23829;51.350;17.286;2023-05-27T04:46:40;24.50;37.20
38020;DHT22;23829;51.350;17.286;2023-05-27T04:49:09;24.40;37.40
38020;DHT22;23829;51.350;17.286;2023-05-27T04:51:36;24.70;37.00
38020;DHT22;23829;51.350;17.286;2023-05-27T04:54:03;24.80;36.80
38020;DHT22;23829;51.350;17.286;2023-05-27T04:56:33;24.80;37.00
38020;DHT22;23829;51.350;17.286;2023-05-27T04:58:59;25.20;36.40
38020;DHT22;23829;51.350;17.286;2023-05-27T05:01:36;24.50;37.70
38020;DHT22;23829;51.350;17.286;2023-05-27T05:04:32;24.90;37.30
38020;DHT22;23829;51.350;17.286;2023-05-27T05:07:02;25.40;36.40
38020;DHT22;23829;51.350;17.286;2023-05-27T05:09:29;25.00;37.20
38020;DHT22;23829;51.350;17.286;2023-05-27T05:12:00;25.00;36.80
38020;DHT22;23829;51.350;17.286;2023-05-27T05:14:29;24.80;37.30
38020;DHT22;23829;51.350;17.286;2023-05-27T05:16:56;25.20;36.90
38020;DHT22;23829;51.350;17.286;2023-05-27T05:19:22;25.30;36.70
38020;DHT22;23829;51.350;17.286;2023-05-27T05:21:49;25.40;36.70
38020;DHT22;23829;51.350;17.286;2023-05-27T05:24:15;26.20;35.60
38020;DHT22;23829;51.350;17.286;2023-05-27T05:26:43;25.50;36.20
38020;DHT22;23829;51.350;17.286;2023-05-27T05:29:13;26.00;36.20
38020;DHT22;23829;51.350;17.286;2023-05-27T05:31:41;26.30;35.30
38020;DHT22;23829;51.350;17.286;2023-05-27T05:34:08;24.90;37.20
38020;DHT22;23829;51.350;17.286;2023-05-27T05:36:36;25.50;37.30
38020;DHT22;23829;51.350;17.286;2023-05-27T05:39:06;25.80;36.20
38020;DHT22;23829;51.350;17.286;2023-05-27T05:41:36;25.90;36.00
38020;DHT22;23829;51.350;17.286;2023-05-27T05:44:04;25.90;35.80
38020;DHT22;23829;51.350;17.286;2023-05-27T05:46:30;25.40;36.50
38020;DHT22;23829;51.350;17.286;2023-05-27T05:48:57;25.40;36.80
38020;DHT22;23829;51.350;17.286;2023-05-27T05:51:34;25.10;37.50
38020;DHT22;23829;51.350;17.286;2023-05-27T05:54:01;25.60;36.30
38020;DHT22;23829;51.350;17.286;2023-05-27T05:56:31;25.70;36.10
38020;DHT22;23829;51.350;17.286;2023-05-27T05:58:58;26.40;35.20
38020;DHT22;23829;51.350;17.286;2023-05-27T06:01:27;26.40;35.10
38020;DHT22;23829;51.350;17.286;2023-05-27T06:03:54;27.40;33.30
38020;DHT22;23829;51.350;17.286;2023-05-27T06:06:35;27.40;33.10
38020;DHT22;23829;51.350;17.286;2023-05-27T06:09:22;26.70;32.80
38020;DHT22;23829;51.350;17.286;2023-05-27T06:11:50;26.20;34.20
38020;DHT22;23829;51.350;17.286;2023-05-27T06:14:17;26.30;33.70
38020;DHT22;23829;51.350;17.286;2023-05-27T06:16:45;26.00;33.90
38020;DHT22;23829;51.350;17.286;2023-05-27T06:19:13;25.90;34.30
38020;DHT22;23829;51.350;17.286;2023-05-27T06:21:40;26.30;33.10
38020;DHT22;23829;51.350;17.286;2023-05-27T06:24:27;26.10;33.60
38020;DHT22;23829;51.350;17.286;2023-05-27T06:27:04;26.00;34.30
38020;DHT22;23829;51.350;17.286;2023-05-27T06:29:31;26.00;32.80
38020;DHT22;23829;51.350;17.286;2023-05-27T06:31:58;26.50;31.90
38020;DHT22;23829;51.350;17.286;2023-05-27T06:34:24;26.30;31.90
38020;DHT22;23829;51.350;17.286;2023-05-27T06:36:51;26.70;31.80
38020;DHT22;23829;51.350;17.286;2023-05-27T06:39:18;26.30;32.00
38020;DHT22;23829;51.350;17.286;2023-05-27T06:41:45;26.20;31.10
38020;DHT22;23829;51.350;17.286;2023-05-27T06:44:34;25.90;31.30
38020;DHT22;23829;51.350;17.286;2023-05-27T06:47:09;25.70;31.90
38020;DHT22;23829;51.350;17.286;2023-05-27T06:49:37;25.70;32.40
38020;DHT22;23829;51.350;17.286;2023-05-27T06:52:06;25.70;32.40
38020;DHT22;23829;51.350;17.286;2023-05-27T06:54:44;26.50;30.60
38020;DHT22;23829;51.350;17.286;2023-05-27T06:57:29;26.50;30.30
38020;DHT22;23829;51.350;17.286;2023-05-27T07:00:07;26.20;31.50
38020;DHT22;23829;51.350;17.286;2023-05-27T07:02:44;26.60;31.30
38020;DHT22;23829;51.350;17.286;2023-05-27T07:05:10;27.10;30.30
38020;DHT22;23829;51.350;17.286;2023-05-27T07:07:36;26.70;31.30
38020;DHT22;23829;51.350;17.286;2023-05-27T07:10:03;27.10;30.80
38020;DHT22;23829;51.350;17.286;2023-05-27T07:12:30;26.80;31.30
38020;DHT22;23829;51.350;17.286;2023-05-27T07:15:07;26.60;31.40
38020;DHT22;23829;51.350;17.286;2023-05-27T07:17:35;26.70;32.20
38020;DHT22;23829;51.350;17.286;2023-05-27T07:20:01;27.00;30.40
38020;DHT22;23829;51.350;17.286;2023-05-27T07:22:28;27.40;30.00
38020;DHT22;23829;51.350;17.286;2023-05-27T07:24:55;28.10;29.60
38020;DHT22;23829;51.350;17.286;2023-05-27T07:27:24;27.60;29.70
38020;DHT22;23829;51.350;17.286;2023-05-27T07:29:56;27.40;28.90
38020;DHT22;23829;51.350;17.286;2023-05-27T07:32:53;27.10;29.10
38020;DHT22;23829;51.350;17.286;2023-05-27T07:35:20;26.10;30.30
38020;DHT22;23829;51.350;17.286;2023-05-27T07:37:46;25.60;32.20
38020;DHT22;23829;51.350;17.286;2023-05-27T07:40:13;26.00;31.20
38020;DHT22;23829;51.350;17.286;2023-05-27T07:42:41;25.70;31.60
38020;DHT22;23829;51.350;17.286;2023-05-27T07:45:07;25.90;31.10
38020;DHT22;23829;51.350;17.286;2023-05-27T07:47:34;26.70;30.20
38020;DHT22;23829;51.350;17.286;2023-05-27T07:50:01;26.90;29.70
38020;DHT22;23829;51.350;17.286;2023-05-27T07:52:38;26.70;30.60
38020;DHT22;23829;51.350;17.286;2023-05-27T07:55:17;26.20;31.50
38020;DHT22;23829;51.350;17.286;2023-05-27T07:57:44;27.20;30.40
38020;DHT22;23829;51.350;17.286;2023-05-27T08:00:12;27.20;30.00
38020;DHT22;23829;51.350;17.286;2023-05-27T08:02:54;27.20;30.00
38020;DHT22;23829;51.350;17.286;2023-05-27T08:05:44;27.10;29.30
38020;DHT22;23829;51.350;17.286;2023-05-27T08:08:30;28.00;28.70
38020;DHT22;23829;51.350;17.286;2023-05-27T08:11:17;28.30;28.70
38020;DHT22;23829;51.350;17.286;2023-05-27T08:14:00;28.20;28.00
38020;DHT22;23829;51.350;17.286;2023-05-27T08:16:47;28.10;27.20
38020;DHT22;23829;51.350;17.286;2023-05-27T08:19:23;28.50;27.50
38020;DHT22;23829;51.350;17.286;2023-05-27T08:21:59;27.60;28.20
38020;DHT22;23829;51.350;17.286;2023-05-27T08:24:45;27.30;28.20
38020;DHT22;23829;51.350;17.286;2023-05-27T08:27:45;27.40;28.50
38020;DHT22;23829;51.350;17.286;2023-05-27T08:30:17;27.90;28.60
38020;DHT22;23829;51.350;17.286;2023-05-27T08:33:04;27.70;28.90
38020;DHT22;23829;51.350;17.286;2023-05-27T08:35:31;28.30;27.40
38020;DHT22;23829;51.350;17.286;2023-05-27T08:37:58;28.10;26.80
38020;DHT22;23829;51.350;17.286;2023-05-27T08:40:28;28.40;27.40
38020;DHT22;23829;51.350;17.286;2023-05-27T08:42:55;28.90;27.00
38020;DHT22;23829;51.350;17.286;2023-05-27T08:45:22;28.60;27.60
38020;DHT22;23829;51.350;17.286;2023-05-27T08:47:49;28.40;28.20
38020;DHT22;23829;51.350;17.286;2023-05-27T08:50:23;28.60;27.10
38020;DHT22;23829;51.350;17.286;2023-05-27T08:52:53;27.80;27.50
38020;DHT22;23829;51.350;17.286;2023-05-27T08:55:22;28.40;26.70
38020;DHT22;23829;51.350;17.286;2023-05-27T08:57:55;28.90;26.70
38020;DHT22;23829;51.350;17.286;2023-05-27T09:00:25;29.00;26.90
38020;DHT22;23829;51.350;17.286;2023-05-27T09:02:54;28.30;27.00
38020;DHT22;23829;51.350;17.286;2023-05-27T09:05:28;28.00;28.20
38020;DHT22;23829;51.350;17.286;2023-05-27T09:07:55;28.10;27.80
38020;DHT22;23829;51.350;17.286;2023-05-27T09:10:22;28.70;26.50
38020;DHT22;23829;51.350;17.286;2023-05-27T09:12:50;29.60;25.70
38020;DHT22;23829;51.350;17.286;2023-05-27T09:15:17;29.00;25.70
38020;DHT22;23829;51.350;17.286;2023-05-27T09:17:44;28.60;26.00
38020;DHT22;23829;51.350;17.286;2023-05-27T09:20:11;28.40;26.30
38020;DHT22;23829;51.350;17.286;2023-05-27T09:22:40;28.50;26.10
38020;DHT22;23829;51.350;17.286;2023-05-27T09:25:07;28.80;25.60
38020;DHT22;23829;51.350;17.286;2023-05-27T09:27:34;29.20;24.90
38020;DHT22;23829;51.350;17.286;2023-05-27T09:30:08;28.80;25.70
38020;DHT22;23829;51.350;17.286;2023-05-27T09:32:34;28.80;26.20
38020;DHT22;23829;51.350;17.286;2023-05-27T09:35:02;28.40;25.70
38020;DHT22;23829;51.350;17.286;2023-05-27T09:37:30;28.80;25.20
38020;DHT22;23829;51.350;17.286;2023-05-27T09:39:59;29.20;24.70
38020;DHT22;23829;51.350;17.286;2023-05-27T09:42:26;29.10;24.80
38020;DHT22;23829;51.350;17.286;2023-05-27T09:44:54;30.00;24.70
38020;DHT22;23829;51.350;17.286;2023-05-27T09:47:21;28.80;24.80
38020;DHT22;23829;51.350;17.286;2023-05-27T09:49:51;28.30;25.30
38020;DHT22;23829;51.350;17.286;2023-05-27T09:52:18;28.50;25.60
38020;DHT22;23829;51.350;17.286;2023-05-27T09:54:48;29.00;25.00
38020;DHT22;23829;51.350;17.286;2023-05-27T09:57:15;28.80;26.10
38020;DHT22;23829;51.350;17.286;2023-05-27T09:59:43;28.10;25.00
38020;DHT22;23829;51.350;17.286;2023-05-27T10:02:13;28.10;26.20
38020;DHT22;23829;51.350;17.286;2023-05-27T10:04:43;28.90;25.50
38020;DHT22;23829;51.350;17.286;2023-05-27T10:07:09;29.20;25.30
38020;DHT22;23829;51.350;17.286;2023-05-27T10:09:37;29.30;25.60
38020;DHT22;23829;51.350;17.286;2023-05-27T10:12:05;29.40;25.90
38020;DHT22;23829;51.350;17.286;2023-05-27T10:14:32;29.00;33.20
38020;DHT22;23829;51.350;17.286;2023-05-27T10:16:58;27.30;41.60
38020;DHT22;23829;51.350;17.286;2023-05-27T10:19:25;26.90;42.50
38020;DHT22;23829;51.350;17.286;2023-05-27T10:21:52;26.70;43.00
38020;DHT22;23829;51.350;17.286;2023-05-27T10:24:19;26.40;48.40
38020;DHT22;23829;51.350;17.286;2023-05-27T10:26:46;25.90;48.70
38020;DHT22;23829;51.350;17.286;2023-05-27T10:29:16;26.40;38.90
38020;DHT22;23829;51.350;17.286;2023-05-27T10:32:01;26.90;41.30
38020;DHT22;23829;51.350;17.286;2023-05-27T10:34:35;26.30;33.90
38020;DHT22;23829;51.350;17.286;2023-05-27T10:37:02;26.00;46.10
38020;DHT22;23829;51.350;17.286;2023-05-27T10:39:29;26.90;42.20
38020;DHT22;23829;51.350;17.286;2023-05-27T10:41:56;27.00;33.50
38020;DHT22;23829;51.350;17.286;2023-05-27T10:44:34;26.60;37.30
38020;DHT22;23829;51.350;17.286;2023-05-27T10:47:11;27.00;42.00
38020;DHT22;23829;51.350;17.286;2023-05-27T10:49:44;26.80;43.30
38020;DHT22;23829;51.350;17.286;2023-05-27T10:52:12;26.60;47.50
38020;DHT22;23829;51.350;17.286;2023-05-27T10:54:44;26.40;48.40
38020;DHT22;23829;51.350;17.286;2023-05-27T10:57:15;26.20;48.80
38020;DHT22;23829;51.350;17.286;2023-05-27T10:59:52;26.60;44.80
38020;DHT22;23829;51.350;17.286;2023-05-27T11:02:20;27.60;37.40
38020;DHT22;23829;51.350;17.286;2023-05-27T11:04:48;27.30;34.90
38020;DHT22;23829;51.350;17.286;2023-05-27T11:07:19;27.50;33.20
38020;DHT22;23829;51.350;17.286;2023-05-27T11:09:49;27.30;29.20
38020;DHT22;23829;51.350;17.286;2023-05-27T11:12:19;27.80;35.50
38020;DHT22;23829;51.350;17.286;2023-05-27T11:14:50;27.10;37.50
38020;DHT22;23829;51.350;17.286;2023-05-27T11:17:17;27.50;36.80
38020;DHT22;23829;51.350;17.286;2023-05-27T11:19:44;27.70;31.10
38020;DHT22;23829;51.350;17.286;2023-05-27T11:22:13;27.80;42.40
38020;DHT22;23829;51.350;17.286;2023-05-27T11:24:40;27.70;38.60
38020;DHT22;23829;51.350;17.286;2023-05-27T11:27:11;27.80;35.10
38020;DHT22;23829;51.350;17.286;2023-05-27T11:29:39;26.90;34.00
38020;DHT22;23829;51.350;17.286;2023-05-27T11:32:06;27.50;34.50
38020;DHT22;23829;51.350;17.286;2023-05-27T11:34:36;27.70;31.80
38020;DHT22;23829;51.350;17.286;2023-05-27T11:37:03;27.40;34.70
38020;DHT22;23829;51.350;17.286;2023-05-27T11:39:31;27.80;35.60
38020;DHT22;23829;51.350;17.286;2023-05-27T11:41:58;27.50;37.20
38020;DHT22;23829;51.350;17.286;2023-05-27T11:44:25;27.40;35.90
38020;DHT22;23829;51.350;17.286;2023-05-27T11:46:58;27.70;31.50
38020;DHT22;23829;51.350;17.286;2023-05-27T11:49:28;27.50;34.70
38020;DHT22;23829;51.350;17.286;2023-05-27T11:51:55;27.60;29.70
38020;DHT22;23829;51.350;17.286;2023-05-27T11:54:30;28.20;29.30
38020;DHT22;23829;51.350;17.286;2023-05-27T11:56:57;28.00;30.00
38020;DHT22;23829;51.350;17.286;2023-05-27T11:59:26;28.30;31.40
38020;DHT22;23829;51.350;17.286;2023-05-27T12:01:53;29.00;26.40
38020;DHT22;23829;51.350;17.286;2023-05-27T12:04:20;28.90;29.20
38020;DHT22;23829;51.350;17.286;2023-05-27T12:06:46;28.20;30.10
38020;DHT22;23829;51.350;17.286;2023-05-27T12:09:14;28.40;30.90
38020;DHT22;23829;51.350;17.286;2023-05-27T12:11:41;28.60;28.20
38020;DHT22;23829;51.350;17.286;2023-05-27T12:14:07;29.60;26.00
38020;DHT22;23829;51.350;17.286;2023-05-27T12:16:34;29.70;27.20
38020;DHT22;23829;51.350;17.286;2023-05-27T12:19:00;29.40;27.50
38020;DHT22;23829;51.350;17.286;2023-05-27T12:21:27;29.50;26.80
38020;DHT22;23829;51.350;17.286;2023-05-27T12:23:54;29.00;31.90
38020;DHT22;23829;51.350;17.286;2023-05-27T12:26:20;29.00;33.20
38020;DHT22;23829;51.350;17.286;2023-05-27T12:28:48;28.80;29.50
38020;DHT22;23829;51.350;17.286;2023-05-27T12:31:14;29.50;26.60
38020;DHT22;23829;51.350;17.286;2023-05-27T12:33:41;29.00;28.20
38020;DHT22;23829;51.350;17.286;2023-05-27T12:36:07;28.80;32.30
38020;DHT22;23829;51.350;17.286;2023-05-27T12:38:34;29.00;26.10
38020;DHT22;23829;51.350;17.286;2023-05-27T12:41:00;29.20;29.20
38020;DHT22;23829;51.350;17.286;2023-05-27T12:43:27;29.30;28.80
38020;DHT22;23829;51.350;17.286;2023-05-27T12:45:53;29.70;26.70
38020;DHT22;23829;51.350;17.286;2023-05-27T12:48:20;29.80;28.50
38020;DHT22;23829;51.350;17.286;2023-05-27T12:50:47;30.30;25.50
38020;DHT22;23829;51.350;17.286;2023-05-27T12:53:14;29.70;26.90
38020;DHT22;23829;51.350;17.286;2023-05-27T12:55:42;29.60;29.40
38020;DHT22;23829;51.350;17.286;2023-05-27T12:58:10;29.60;28.50
38020;DHT22;23829;51.350;17.286;2023-05-27T13:00:36;30.00;27.00
38020;DHT22;23829;51.350;17.286;2023-05-27T13:03:03;29.90;27.60
38020;DHT22;23829;51.350;17.286;2023-05-27T13:05:29;29.90;27.20
38020;DHT22;23829;51.350;17.286;2023-05-27T13:08:04;30.00;26.30
38020;DHT22;23829;51.350;17.286;2023-05-27T13:10:31;30.40;25.10
38020;DHT22;23829;51.350;17.286;2023-05-27T13:12:59;30.30;27.50
38020;DHT22;23829;51.350;17.286;2023-05-27T13:15:26;30.60;27.10
38020;DHT22;23829;51.350;17.286;2023-05-27T13:17:53;30.50;25.30
38020;DHT22;23829;51.350;17.286;2023-05-27T13:20:22;30.40;24.20
38020;DHT22;23829;51.350;17.286;2023-05-27T13:22:49;30.40;25.90
38020;DHT22;23829;51.350;17.286;2023-05-27T13:25:17;30.30;26.00
38020;DHT22;23829;51.350;17.286;2023-05-27T13:27:43;30.20;25.40
38020;DHT22;23829;51.350;17.286;2023-05-27T13:30:14;30.50;25.40
38020;DHT22;23829;51.350;17.286;2023-05-27T13:32:42;31.10;24.60
38020;DHT22;23829;51.350;17.286;2023-05-27T13:35:09;31.60;23.90
38020;DHT22;23829;51.350;17.286;2023-05-27T13:37:39;30.90;25.40
38020;DHT22;23829;51.350;17.286;2023-05-27T13:40:09;30.70;23.70
38020;DHT22;23829;51.350;17.286;2023-05-27T13:42:36;31.30;23.00
38020;DHT22;23829;51.350;17.286;2023-05-27T13:45:03;30.50;24.70
38020;DHT22;23829;51.350;17.286;2023-05-27T13:47:30;30.30;24.60
38020;DHT22;23829;51.350;17.286;2023-05-27T13:49:57;30.00;24.90
38020;DHT22;23829;51.350;17.286;2023-05-27T13:52:23;30.40;23.80
38020;DHT22;23829;51.350;17.286;2023-05-27T13:54:50;30.90;24.00
38020;DHT22;23829;51.350;17.286;2023-05-27T13:57:16;31.30;23.60
38020;DHT22;23829;51.350;17.286;2023-05-27T13:59:43;30.90;23.50
38020;DHT22;23829;51.350;17.286;2023-05-27T14:02:09;30.70;23.90
38020;DHT22;23829;51.350;17.286;2023-05-27T14:04:36;30.80;23.40
38020;DHT22;23829;51.350;17.286;2023-05-27T14:07:02;30.50;23.80
38020;DHT22;23829;51.350;17.286;2023-05-27T14:09:29;30.90;24.50
38020;DHT22;23829;51.350;17.286;2023-05-27T14:11:55;30.60;24.50
38020;DHT22;23829;51.350;17.286;2023-05-27T14:14:23;30.00;23.90
38020;DHT22;23829;51.350;17.286;2023-05-27T14:16:50;31.10;23.30
38020;DHT22;23829;51.350;17.286;2023-05-27T14:19:16;31.20;23.90
38020;DHT22;23829;51.350;17.286;2023-05-27T14:21:42;30.60;23.60
38020;DHT22;23829;51.350;17.286;2023-05-27T14:24:08;31.50;23.50
38020;DHT22;23829;51.350;17.286;2023-05-27T14:26:35;31.20;23.60
38020;DHT22;23829;51.350;17.286;2023-05-27T14:29:01;30.40;24.10
38020;DHT22;23829;51.350;17.286;2023-05-27T14:31:28;31.00;23.70
38020;DHT22;23829;51.350;17.286;2023-05-27T14:33:54;31.30;23.10
38020;DHT22;23829;51.350;17.286;2023-05-27T14:36:21;31.10;23.70
38020;DHT22;23829;51.350;17.286;2023-05-27T14:38:47;31.10;24.30
38020;DHT22;23829;51.350;17.286;2023-05-27T14:41:14;30.60;23.70
38020;DHT22;23829;51.350;17.286;2023-05-27T14:43:40;30.80;24.10
38020;DHT22;23829;51.350;17.286;2023-05-27T14:46:07;30.10;24.20
38020;DHT22;23829;51.350;17.286;2023-05-27T14:48:33;30.20;24.30
38020;DHT22;23829;51.350;17.286;2023-05-27T14:51:00;30.60;24.40
38020;DHT22;23829;51.350;17.286;2023-05-27T14:53:26;31.00;24.60
38020;DHT22;23829;51.350;17.286;2023-05-27T14:55:53;30.70;24.60
38020;DHT22;23829;51.350;17.286;2023-05-27T14:58:22;31.70;23.00
38020;DHT22;23829;51.350;17.286;2023-05-27T15:00:49;31.40;23.30
38020;DHT22;23829;51.350;17.286;2023-05-27T15:03:15;31.80;22.80
38020;DHT22;23829;51.350;17.286;2023-05-27T15:05:42;31.40;23.60
38020;DHT22;23829;51.350;17.286;2023-05-27T15:08:08;30.90;24.00
38020;DHT22;23829;51.350;17.286;2023-05-27T15:10:43;30.70;24.20
38020;DHT22;23829;51.350;17.286;2023-05-27T15:13:09;30.80;23.90
38020;DHT22;23829;51.350;17.286;2023-05-27T15:15:38;31.50;23.90
38020;DHT22;23829;51.350;17.286;2023-05-27T15:18:09;31.50;23.30
38020;DHT22;23829;51.350;17.286;2023-05-27T15:20:37;31.70;23.20
38020;DHT22;23829;51.350;17.286;2023-05-27T15:23:03;31.00;23.70
38020;DHT22;23829;51.350;17.286;2023-05-27T15:25:30;30.30;24.30
38020;DHT22;23829;51.350;17.286;2023-05-27T15:27:56;30.50;24.30